Guilin Liangjiang International Airport

Airport
ICAO code: 
ZGKL
IATA Code: 
KWL
Summary
ICAO Region: 
APAC
Territory: 
Location: 
Liangjiang, Guangxi,
Serving: 
Guilin Liangjiang
Coordinates: 
Aerial View: 
25° 12' 57.166" N, 110° 2' 49.435" E
Metar
Observation
ZGKL 071400Z 33002MPS 300V360 CAVOK 09/05 Q1023 NOSIG
Station
Guilin
Date/Time
2021-12-07 14:00:00
Wind direction
330°
Lowest cloud amount
clouds and visibility OK
Temperature
9°C
Dew point
5°C
Humidity
76%
QNH
1023 hPa
Weather condition
n/a

Description

Guilin Liangjiang International Airport, is the airport serving Liangjiang, about 28 km southwest from Guilin City, Guangxi, in the People’s Republic of China.

Climatology

Within the Köppen Climate Classification System, ((Koppen climate classification Cwa)) this climate type generally has warm and humid summers with mild winters. Its extent is from 30 to 50° of latitude mainly on the eastern and western borders of most continents. During the winter, the main weather feature is the mid-latitude cyclone. Convective thunderstorms provide precipitation in the summer months.

Runways

Designator Length Width Surface Rops
1/19 2800 45 CON Yes/Yes
Airport map: 
Aerial View: 

SKYbrary Partners:

Safety knowledge contributed by: